Statia Express — V7TT3 — position and weather

sailwx.info

Track history (hours):
 
Tides and Currents Weather Stations Pressure Air Temp Water Temp Dewpoint Dewpoint Depression Visibility Wind Speed Wind Dir Waves Ship Positions

Statia Express

Last reported at 2015-Aug-25 13:27 UTC. Time now 2015-Sep-02 21:53 UTC.
Position N 16°45' W 062°25'.
Warning: this ship's position is 8 days out of date.

Length 28 m; draft 4.1 m.

Type: Tug. MMSI: 538003879.

Date/timePositionNaut miles runAvg speedWind from/ knotsBaromVisibWave heightAir tempDewpointWater temp
2015-Aug-25 13:27N 16°45' W 062°25'5 5.9
2015-Aug-25 12:33N 16°41' W 062°22'7 6.2
2015-Aug-25 11:29N 16°36' W 062°17'15 0.3
2015-Aug-23 14:26N 16°20' W 062°15'5 5.7
2015-Aug-23 13:30N 16°25' W 062°18'5 5.2
2015-Aug-23 12:33N 16°29' W 062°21'11 5.1
2015-Aug-23 10:29N 16°37' W 062°28'6 5.7
2015-Aug-23 09:28N 16°42' W 062°31'64 2.1
2015-Aug-22 03:04N 17°38' W 063°03'3 5.4
2015-Aug-22 02:33N 17°41' W 063°03'6 5.6
2015-Aug-22 01:33N 17°47' W 063°04'6 5.8
2015-Aug-22 00:33N 17°52' W 063°05'5 5.4
2015-Aug-21 23:33N 17°58' W 063°05'4 3.6
2015-Aug-21 22:33N 18°01' W 063°05'2 2.2
2015-Aug-21 21:29N 18°01' W 063°03'2 2.6
2015-Aug-21 20:32N 18°01' W 063°05'0 0.0
2015-Aug-21 19:32N 18°01' W 063°05'0 0.0
2015-Aug-21 18:33N 18°01' W 063°05'0 0.0
2015-Aug-21 17:33N 18°01' W 063°05'0 0.0
2015-Aug-21 16:33N 18°01' W 063°05'0 0.0
2015-Aug-21 15:33N 18°01' W 063°05'0 0.0
2015-Aug-21 14:33N 18°01' W 063°05'0 0.0
2015-Aug-21 13:24N 18°01' W 063°05'0 0.0
2015-Aug-21 12:32N 18°01' W 063°05'0 0.1
2015-Aug-21 11:32N 18°01' W 063°05'1 1.4
2015-Aug-21 10:33N 18°01' W 063°04'1 0.7
2015-Aug-21 09:32N 18°01' W 063°03'0 0.0
2015-Aug-21 08:08N 18°01' W 063°03'0 0.0
2015-Aug-21 07:33N 18°01' W 063°03'0 0.0
2015-Aug-21 06:31N 18°01' W 063°03'0 0.3
2015-Aug-21 05:31N 18°01' W 063°03'3 2.9
2015-Aug-21 04:33N 17°59' W 063°06'5 5.5
2015-Aug-21 03:33N 17°54' W 063°05'6 5.8
2015-Aug-21 02:33N 17°48' W 063°04'  
2015-Aug-16 16:27N 17°41' W 063°03'8 9.0
2015-Aug-16 15:33N 17°49' W 063°03'9 9.2
2015-Aug-16 14:33N 17°59' W 063°04'2 1.9
2015-Aug-16 13:24N 18°01' W 063°03'0 0.1
2015-Aug-16 09:09N 18°01' W 063°03'0 0.0
2015-Aug-16 08:13N 18°01' W 063°03'0 0.0
2015-Aug-16 06:13N 18°01' W 063°03'1 0.8
2015-Aug-16 05:33N 18°01' W 063°04'4 4.1
2015-Aug-16 04:32N 17°57' W 063°05'6 5.8
2015-Aug-16 03:33N 17°51' W 063°05'  
Track history (hours):
 
Tides and Currents Weather Stations Pressure Air Temp Water Temp Dewpoint Dewpoint Depression Visibility Wind Speed Wind Dir Waves Ship Positions

Statia Express

Last reported at 2015-Aug-25 13:27 UTC. Time now 2015-Sep-02 21:53 UTC.
Position N 16°45' W 062°25'.
Warning: this ship's position is 8 days out of date.

Length 28 m; draft 4.1 m.

Type: Tug. MMSI: 538003879.

Date/timePositionNaut miles runAvg speedWind from/ knotsBaromVisibWave heightAir tempDewpointWater temp
2015-Aug-25 13:27N 16°45' W 062°25'5 5.9
2015-Aug-25 12:33N 16°41' W 062°22'7 6.2
2015-Aug-25 11:29N 16°36' W 062°17'15 0.3
2015-Aug-23 14:26N 16°20' W 062°15'5 5.7
2015-Aug-23 13:30N 16°25' W 062°18'5 5.2
2015-Aug-23 12:33N 16°29' W 062°21'11 5.1
2015-Aug-23 10:29N 16°37' W 062°28'6 5.7
2015-Aug-23 09:28N 16°42' W 062°31'64 2.1
2015-Aug-22 03:04N 17°38' W 063°03'3 5.4
2015-Aug-22 02:33N 17°41' W 063°03'6 5.6
2015-Aug-22 01:33N 17°47' W 063°04'6 5.8
2015-Aug-22 00:33N 17°52' W 063°05'5 5.4
2015-Aug-21 23:33N 17°58' W 063°05'4 3.6
2015-Aug-21 22:33N 18°01' W 063°05'2 2.2
2015-Aug-21 21:29N 18°01' W 063°03'2 2.6
2015-Aug-21 20:32N 18°01' W 063°05'0 0.0
2015-Aug-21 19:32N 18°01' W 063°05'0 0.0
2015-Aug-21 18:33N 18°01' W 063°05'0 0.0
2015-Aug-21 17:33N 18°01' W 063°05'0 0.0
2015-Aug-21 16:33N 18°01' W 063°05'0 0.0
2015-Aug-21 15:33N 18°01' W 063°05'0 0.0
2015-Aug-21 14:33N 18°01' W 063°05'0 0.0
2015-Aug-21 13:24N 18°01' W 063°05'0 0.0
2015-Aug-21 12:32N 18°01' W 063°05'0 0.1
2015-Aug-21 11:32N 18°01' W 063°05'1 1.4
2015-Aug-21 10:33N 18°01' W 063°04'1 0.7
2015-Aug-21 09:32N 18°01' W 063°03'0 0.0
2015-Aug-21 08:08N 18°01' W 063°03'0 0.0
2015-Aug-21 07:33N 18°01' W 063°03'0 0.0
2015-Aug-21 06:31N 18°01' W 063°03'0 0.3
2015-Aug-21 05:31N 18°01' W 063°03'3 2.9
2015-Aug-21 04:33N 17°59' W 063°06'5 5.5
2015-Aug-21 03:33N 17°54' W 063°05'6 5.8
2015-Aug-21 02:33N 17°48' W 063°04'  
2015-Aug-16 16:27N 17°41' W 063°03'8 9.0
2015-Aug-16 15:33N 17°49' W 063°03'9 9.2
2015-Aug-16 14:33N 17°59' W 063°04'2 1.9
2015-Aug-16 13:24N 18°01' W 063°03'0 0.1
2015-Aug-16 09:09N 18°01' W 063°03'0 0.0
2015-Aug-16 08:13N 18°01' W 063°03'0 0.0
2015-Aug-16 06:13N 18°01' W 063°03'1 0.8
2015-Aug-16 05:33N 18°01' W 063°04'4 4.1
2015-Aug-16 04:32N 17°57' W 063°05'6 5.8
2015-Aug-16 03:33N 17°51' W 063°05'  

Dump ship's entire track history